Time;durP1;ratioP1;P1;durP2;ratioP2;P2;SDS_P1;SDS_P2;PMS_P1;PMS_P2;Temp;Humidity;BMP_temperature;BMP_pressure;BME280_temperature;BME280_humidity;BME280_pressure;Samples;Min_cycle;Max_cycle;Signal;HPM_P1;HPM_P2
2022/11/29 08:06:05;;;;;;;7.90;3.60;;;19.40;57.10;;;;;;5094699;27;43896;-60
2022/11/29 08:08:33;;;;;;;5.93;3.42;;;19.50;57.50;;;;;;5094548;27;43445;-59
2022/11/29 08:11:11;;;;;;;4.63;3.35;;;19.50;58.10;;;;;;5097246;27;43404;-59
2022/11/29 08:13:38;;;;;;;7.43;3.33;;;19.70;57.60;;;;;;5097475;27;43488;-59
2022/11/29 08:16:06;;;;;;;5.90;3.50;;;19.80;57.30;;;;;;5093850;27;44879;-59
2022/11/29 08:18:35;;;;;;;6.55;4.45;;;19.90;57.30;;;;;;5097084;27;43960;-57
2022/11/29 08:21:06;;;;;;;9.57;5.93;;;20.00;57.10;;;;;;5093841;27;43499;-57
2022/11/29 08:23:33;;;;;;;6.90;5.53;;;20.20;57.50;;;;;;5093691;27;43410;-57
2022/11/29 08:26:02;;;;;;;7.45;5.97;;;20.30;56.80;;;;;;5096701;27;45303;-57
2022/11/29 08:28:29;;;;;;;6.90;5.45;;;20.50;56.70;;;;;;5094892;27;43492;-57
2022/11/29 08:31:08;;;;;;;6.63;4.88;;;20.50;56.50;;;;;;5095281;27;43453;-58
2022/11/29 08:33:38;;;;;;;6.68;5.25;;;20.70;56.50;;;;;;5093911;27;43540;-59
2022/11/29 08:36:18;;;;;;;6.03;5.23;;;20.80;56.70;;;;;;5090274;27;44881;-57
2022/11/29 08:38:47;;;;;;;6.75;5.00;;;20.90;55.90;;;;;;5090526;27;43900;-57
2022/11/29 08:41:15;;;;;;;5.25;4.70;;;21.10;55.70;;;;;;5094314;27;43478;-57
2022/11/29 08:43:43;;;;;;;8.40;5.05;;;21.20;55.50;;;;;;5094423;27;43502;-58
2022/11/29 08:46:11;;;;;;;5.97;4.25;;;21.30;56.40;;;;;;5096739;27;45056;-58
2022/11/29 08:48:46;;;;;;;5.88;4.35;;;21.40;55.60;;;;;;5095415;27;44054;-58
2022/11/29 08:51:13;;;;;;;5.50;4.00;;;21.50;55.70;;;;;;5093732;27;43558;-58
2022/11/29 08:53:40;;;;;;;7.75;4.22;;;21.60;55.50;;;;;;5091213;27;43504;-58
2022/11/29 08:56:19;;;;;;;4.82;3.90;;;21.70;55.50;;;;;;5094291;27;44880;-58
2022/11/29 08:59:07;;;;;;;4.65;3.83;;;21.80;55.20;;;;;;5091674;27;43480;-58
2022/11/29 09:01:34;;;;;;;4.57;3.33;;;21.80;55.30;;;;;;5093821;27;43561;-58
2022/11/29 09:04:01;;;;;;;4.55;3.30;;;21.90;55.10;;;;;;5093105;27;43594;-58
2022/11/29 09:06:32;;;;;;;4.00;3.38;;;21.90;55.10;;;;;;5097057;27;44931;-57
2022/11/29 09:09:00;;;;;;;5.82;3.55;;;22.00;55.10;;;;;;5096886;27;44143;-56
2022/11/29 09:11:29;;;;;;;4.35;3.40;;;22.10;55.40;;;;;;5098812;27;43449;-57
2022/11/29 09:13:59;;;;;;;3.75;2.85;;;22.20;54.80;;;;;;5095576;27;43632;-57
2022/11/29 09:16:31;;;;;;;3.77;3.10;;;22.20;54.80;;;;;;5086610;27;44971;-57
2022/11/29 09:18:59;;;;;;;4.22;3.00;;;22.30;55.00;;;;;;5080360;28;43872;-57
2022/11/29 09:21:29;;;;;;;3.28;2.78;;;22.40;54.80;;;;;;5080414;27;43465;-57
2022/11/29 09:23:59;;;;;;;6.07;3.10;;;22.40;54.60;;;;;;5078881;27;43466;-57
2022/11/29 09:26:29;;;;;;;2.92;2.72;;;22.50;54.50;;;;;;5079327;27;43923;-57
2022/11/29 09:29:01;;;;;;;3.83;2.67;;;22.60;54.40;;;;;;5082419;27;43399;-57
2022/11/29 09:31:30;;;;;;;5.25;2.80;;;22.60;54.30;;;;;;5079594;27;43535;-58
2022/11/29 09:33:57;;;;;;;3.75;2.55;;;22.70;54.40;;;;;;5078887;28;43593;-57
2022/11/29 09:36:25;;;;;;;3.03;2.70;;;22.70;54.20;;;;;;5078965;27;45071;-57
2022/11/29 09:38:56;;;;;;;3.92;2.85;;;22.70;54.00;;;;;;5079867;28;43968;-57
2022/11/29 09:41:34;;;;;;;2.70;2.50;;;22.70;54.30;;;;;;5079421;28;44089;-57
2022/11/29 09:44:36;;;;;;;3.03;2.60;;;22.70;54.30;;;;;;5078792;28;43389;-57
2022/11/29 09:47:30;;;;;;;3.00;2.70;;;22.70;54.20;;;;;;5079622;28;43835;-57
2022/11/29 09:50:15;;;;;;;2.58;2.38;;;22.70;54.20;;;;;;5078117;28;43783;-57
2022/11/29 09:53:29;;;;;;;2.92;2.60;;;22.80;54.30;;;;;;5080628;28;43501;-57
2022/11/29 09:56:17;;;;;;;3.63;2.72;;;22.80;54.30;;;;;;5076620;28;43507;-57
2022/11/29 09:58:54;;;;;;;3.63;2.45;;;22.80;54.40;;;;;;5079588;28;44822;-57
2022/11/29 10:01:28;;;;;;;3.85;2.88;;;22.80;54.30;;;;;;5079968;28;43841;-57
2022/11/29 10:04:02;;;;;;;2.63;2.30;;;22.80;54.50;;;;;;5078403;27;43499;-56
2022/11/29 10:06:40;;;;;;;2.97;2.50;;;22.70;54.50;;;;;;5078492;28;43499;-58
2022/11/29 10:09:20;;;;;;;2.42;2.17;;;22.70;54.60;;;;;;5074525;28;44895;-58
2022/11/29 10:12:12;;;;;;;2.50;2.30;;;22.70;54.60;;;;;;5078897;27;44434;-57
2022/11/29 10:15:12;;;;;;;2.55;2.33;;;22.70;54.60;;;;;;5079433;28;43387;-58
2022/11/29 10:18:02;;;;;;;4.10;2.38;;;22.80;54.60;;;;;;5079997;28;43498;-58
2022/11/29 10:20:33;;;;;;;2.60;2.40;;;22.70;54.60;;;;;;5080261;27;45335;-58
2022/11/29 10:23:25;;;;;;;2.63;2.05;;;22.60;55.20;;;;;;5079425;28;43690;-57
2022/11/29 10:25:55;;;;;;;2.50;2.30;;;22.70;54.70;;;;;;5079157;28;43995;-57
2022/11/29 10:28:30;;;;;;;2.90;2.13;;;22.70;54.90;;;;;;5078230;27;43468;-57
2022/11/29 10:31:16;;;;;;;2.30;2.10;;;22.70;54.70;;;;;;5078672;27;44114;-57
2022/11/29 10:33:44;;;;;;;2.95;2.05;;;22.70;54.80;;;;;;5077232;28;44017;-57
2022/11/29 10:36:41;;;;;;;2.20;2.00;;;22.70;54.80;;;;;;5077675;27;43439;-57
2022/11/29 10:39:38;;;;;;;2.25;2.05;;;22.70;54.80;;;;;;5076548;28;44140;-58
2022/11/29 10:42:47;;;;;;;2.53;2.08;;;22.70;54.70;;;;;;5081055;28;45174;-58
2022/11/29 10:45:21;;;;;;;2.20;2.00;;;22.80;54.80;;;;;;5080280;28;44143;-58
2022/11/29 10:47:49;;;;;;;2.58;1.80;;;22.70;54.80;;;;;;5077666;28;43391;-58
2022/11/29 10:50:27;;;;;;;2.70;1.88;;;22.80;54.90;;;;;;5079849;27;43573;-58
2022/11/29 10:52:59;;;;;;;2.13;1.90;;;22.80;54.90;;;;;;5078901;27;43956;-58
2022/11/29 10:55:30;;;;;;;2.15;1.95;;;22.90;54.80;;;;;;5076643;28;43892;-58
2022/11/29 10:58:12;;;;;;;2.20;2.00;;;23.00;54.90;;;;;;5078218;27;43424;-58
2022/11/29 11:00:45;;;;;;;1.90;1.80;;;23.10;54.80;;;;;;5079969;28;43443;-58
2022/11/29 11:03:42;;;;;;;2.10;1.90;;;23.10;54.60;;;;;;5077913;28;44785;-58
2022/11/29 11:06:18;;;;;;;1.85;1.70;;;23.20;54.80;;;;;;5080455;28;43895;-57
2022/11/29 11:09:10;;;;;;;2.22;2.03;;;23.20;54.70;;;;;;5077643;28;43550;-57
2022/11/29 11:11:38;;;;;;;1.90;1.80;;;23.20;54.40;;;;;;5081688;27;43510;-57
2022/11/29 11:14:21;;;;;;;1.63;1.52;;;23.30;54.30;;;;;;5080742;28;43929;-57
2022/11/29 11:16:50;;;;;;;1.77;1.67;;;23.30;54.30;;;;;;5076051;28;43505;-56
2022/11/29 11:19:31;;;;;;;2.00;1.80;;;23.30;54.20;;;;;;5080389;28;43497;-58
2022/11/29 11:22:02;;;;;;;1.90;1.80;;;23.30;54.30;;;;;;5078670;27;43514;-57
2022/11/29 11:24:40;;;;;;;1.70;1.60;;;23.20;54.20;;;;;;5075290;28;44756;-57
2022/11/29 11:27:08;;;;;;;2.10;1.95;;;23.20;54.30;;;;;;5081208;27;43418;-58
2022/11/29 11:29:42;;;;;;;1.85;1.75;;;23.20;54.40;;;;;;5080415;27;43410;-57
2022/11/29 11:32:18;;;;;;;2.97;1.83;;;23.10;54.30;;;;;;5080157;27;43544;-57
2022/11/29 11:34:58;;;;;;;2.28;1.80;;;23.10;54.40;;;;;;5079030;28;43884;-57
2022/11/29 11:37:25;;;;;;;2.30;1.90;;;23.10;54.50;;;;;;5075140;28;43434;-57
2022/11/29 11:39:55;;;;;;;1.92;1.77;;;23.00;54.50;;;;;;5075303;28;43498;-57
2022/11/29 11:42:38;;;;;;;1.70;1.60;;;23.00;54.60;;;;;;5075147;28;43480;-57
2022/11/29 11:45:30;;;;;;;1.80;1.70;;;23.00;54.60;;;;;;5074514;28;43995;-57
2022/11/29 11:48:01;;;;;;;1.90;1.80;;;22.90;54.60;;;;;;5077294;28;43517;-57
2022/11/29 11:50:52;;;;;;;1.90;1.75;;;22.90;54.90;;;;;;5079694;28;43485;-57
2022/11/29 11:53:27;;;;;;;1.60;1.50;;;22.90;54.80;;;;;;5078479;28;43546;-57
2022/11/29 11:56:04;;;;;;;1.90;1.80;;;22.80;54.80;;;;;;5079693;27;44054;-57
2022/11/29 11:58:52;;;;;;;1.70;1.60;;;22.80;54.90;;;;;;5078635;27;44077;-57
2022/11/29 12:01:36;;;;;;;2.03;1.63;;;22.70;54.90;;;;;;5076209;28;43865;-57
2022/11/29 12:04:22;;;;;;;1.63;1.52;;;22.70;55.10;;;;;;5078181;27;43481;-57
2022/11/29 12:07:16;;;;;;;1.60;1.50;;;22.70;55.30;;;;;;5080154;27;44255;-57
2022/11/29 12:09:58;;;;;;;1.85;1.60;;;22.60;55.20;;;;;;5073645;28;43466;-57
2022/11/29 12:12:30;;;;;;;1.60;1.50;;;22.50;55.30;;;;;;5080560;28;43424;-57
2022/11/29 12:15:02;;;;;;;1.60;1.50;;;22.50;55.30;;;;;;5079940;28;43514;-57
2022/11/29 12:17:55;;;;;;;1.75;1.65;;;22.50;55.20;;;;;;5079899;27;43979;-57
2022/11/29 12:20:38;;;;;;;1.67;1.58;;;22.40;55.40;;;;;;5077013;28;43489;-57
2022/11/29 12:23:11;;;;;;;1.88;1.75;;;22.40;55.40;;;;;;5075683;28;43491;-57
2022/11/29 12:25:53;;;;;;;3.42;2.00;;;22.40;55.90;;;;;;5076788;28;43502;-57
2022/11/29 12:28:25;;;;;;;2.10;1.90;;;22.30;55.60;;;;;;5079495;27;43789;-57
2022/11/29 12:31:20;;;;;;;1.80;1.70;;;22.30;55.30;;;;;;5080663;27;43533;-57
2022/11/29 12:34:17;;;;;;;1.92;1.83;;;22.30;55.50;;;;;;5078958;28;43469;-57
2022/11/29 12:36:57;;;;;;;1.90;1.80;;;22.20;55.50;;;;;;5079120;27;43530;-57
2022/11/29 12:39:39;;;;;;;2.03;1.92;;;22.20;55.50;;;;;;5076664;27;44348;-57
2022/11/29 12:42:26;;;;;;;2.17;1.80;;;22.10;55.40;;;;;;5076686;28;43433;-56
2022/11/29 12:45:19;;;;;;;2.20;2.00;;;22.10;55.80;;;;;;5077350;28;44029;-57
2022/11/29 12:48:07;;;;;;;3.67;1.88;;;22.10;55.80;;;;;;5078208;27;43531;-57
2022/11/29 12:51:04;;;;;;;1.80;1.70;;;22.00;55.80;;;;;;5077540;27;43986;-57
2022/11/29 12:53:59;;;;;;;2.50;1.90;;;22.00;55.80;;;;;;5082331;28;44246;-57
2022/11/29 12:56:30;;;;;;;1.80;1.70;;;22.00;55.80;;;;;;5080241;27;43359;-57
2022/11/29 12:58:58;;;;;;;;;;;22.00;55.90;;;;;;5079885;28;43534;-57
2022/11/29 13:01:28;;;;;;;2.00;1.90;;;22.00;55.90;;;;;;5082052;28;44307;-57
2022/11/29 13:04:10;;;;;;;1.88;1.77;;;21.90;55.90;;;;;;5082044;27;44009;-57
2022/11/29 13:06:43;;;;;;;2.00;1.88;;;21.90;55.90;;;;;;5082135;28;43475;-57
2022/11/29 13:09:48;;;;;;;1.90;1.80;;;22.00;56.00;;;;;;5081316;28;43568;-56
2022/11/29 13:12:15;;;;;;;1.92;1.83;;;21.90;55.90;;;;;;5083455;27;44793;-57
2022/11/29 13:14:54;;;;;;;1.80;1.70;;;21.90;55.90;;;;;;5079113;27;43533;-57
2022/11/29 13:17:36;;;;;;;1.90;1.80;;;21.90;55.90;;;;;;5074649;28;43466;-57
2022/11/29 13:20:22;;;;;;;2.10;2.00;;;21.80;55.90;;;;;;5081440;28;43521;-57
2022/11/29 13:23:11;;;;;;;2.50;2.30;;;21.90;56.10;;;;;;5078155;28;43897;-57
2022/11/29 13:25:45;;;;;;;2.40;1.90;;;21.80;55.90;;;;;;5081802;28;44026;-57
2022/11/29 13:28:31;;;;;;;2.30;2.10;;;21.80;56.00;;;;;;5082393;27;43513;-57
2022/11/29 13:31:02;;;;;;;2.63;2.15;;;21.70;55.90;;;;;;5081731;27;43521;-57
2022/11/29 13:34:00;;;;;;;2.38;2.10;;;21.70;56.00;;;;;;5081632;27;44675;-57
2022/11/29 13:36:37;;;;;;;2.92;2.20;;;21.70;56.00;;;;;;5079691;27;43910;-57
2022/11/29 13:39:15;;;;;;;2.33;2.15;;;21.70;56.00;;;;;;5079843;27;43509;-57
2022/11/29 13:41:53;;;;;;;2.00;1.90;;;21.70;56.00;;;;;;5078736;27;43424;-57
2022/11/29 13:44:39;;;;;;;2.35;2.22;;;21.60;56.10;;;;;;5078206;27;43735;-57
2022/11/29 13:47:10;;;;;;;2.03;1.88;;;21.60;56.00;;;;;;5080186;28;43435;-57
2022/11/29 13:49:50;;;;;;;2.28;2.15;;;21.60;56.00;;;;;;5081595;27;43430;-57
2022/11/29 13:52:43;;;;;;;2.35;2.20;;;21.60;56.00;;;;;;5080981;27;43505;-56
2022/11/29 13:55:10;;;;;;;2.00;1.90;;;21.60;56.00;;;;;;5063059;28;43859;-57
2022/11/29 13:58:04;;;;;;;2.10;2.00;;;21.60;56.10;;;;;;5082961;27;43475;-57
2022/11/29 14:00:43;;;;;;;2.35;2.15;;;21.50;56.00;;;;;;5078359;28;43451;-57
2022/11/29 14:03:23;;;;;;;2.40;2.20;;;21.60;56.00;;;;;;5079860;27;43593;-57
2022/11/29 14:05:53;;;;;;;2.22;2.00;;;21.50;56.00;;;;;;5078502;27;44801;-57
2022/11/29 14:08:25;;;;;;;2.22;2.13;;;21.50;56.00;;;;;;5077477;28;43441;-56
2022/11/29 14:10:55;;;;;;;2.17;2.08;;;21.50;56.10;;;;;;5082851;27;43464;-57
2022/11/29 14:13:31;;;;;;;2.40;2.30;;;21.50;56.10;;;;;;5078956;28;43377;-56
2022/11/29 14:16:02;;;;;;;2.13;2.03;;;21.50;56.20;;;;;;5082915;28;43865;-57
2022/11/29 14:18:36;;;;;;;;;;;21.40;56.20;;;;;;5082725;27;43975;-58
2022/11/29 14:21:04;;;;;;;2.20;2.10;;;21.40;56.20;;;;;;5078048;28;43492;-56
2022/11/29 14:23:33;;;;;;;2.40;2.20;;;21.40;56.40;;;;;;5078853;27;43548;-57
2022/11/29 14:26:00;;;;;;;2.40;2.20;;;21.40;56.30;;;;;;5079656;28;44862;-57
2022/11/29 14:28:37;;;;;;;2.13;2.03;;;21.30;56.30;;;;;;5079750;27;43510;-57
2022/11/29 14:31:08;;;;;;;2.60;2.40;;;21.30;56.40;;;;;;5076174;27;43508;-56
2022/11/29 14:34:14;;;;;;;2.42;2.22;;;21.30;56.40;;;;;;5076824;28;43551;-57
2022/11/29 14:36:42;;;;;;;2.35;2.17;;;21.30;56.50;;;;;;5055549;28;45369;-57
2022/11/29 14:39:42;;;;;;;2.42;2.22;;;21.20;56.50;;;;;;5076945;28;43882;-56
2022/11/29 14:42:19;;;;;;;2.20;2.10;;;21.20;56.50;;;;;;5079165;28;43599;-56
2022/11/29 14:44:53;;;;;;;2.45;2.30;;;21.20;56.60;;;;;;5079356;28;43446;-57
2022/11/29 14:47:33;;;;;;;2.10;2.00;;;21.20;56.40;;;;;;5077437;27;44284;-57
2022/11/29 14:50:07;;;;;;;2.45;2.30;;;21.20;57.10;;;;;;5077981;28;43461;-56
2022/11/29 14:52:37;;;;;;;1.98;1.88;;;21.20;56.40;;;;;;5080486;27;43477;-57
2022/11/29 14:55:05;;;;;;;2.28;2.03;;;21.20;56.40;;;;;;5077702;28;43712;-56
2022/11/29 14:58:02;;;;;;;2.10;2.00;;;21.20;56.40;;;;;;5077493;27;43797;-56
2022/11/29 15:00:40;;;;;;;2.17;2.08;;;21.20;56.40;;;;;;5079870;28;43553;-56
2022/11/29 15:03:29;;;;;;;1.90;1.80;;;21.20;56.50;;;;;;5079460;28;43638;-56
2022/11/29 15:06:06;;;;;;;2.28;2.08;;;21.10;56.40;;;;;;5076489;28;43730;-56
2022/11/29 15:08:33;;;;;;;2.38;2.22;;;21.10;56.40;;;;;;5079833;27;44878;-56
2022/11/29 15:11:10;;;;;;;2.00;1.90;;;21.10;56.50;;;;;;5081208;27;44144;-56
2022/11/29 15:13:52;;;;;;;2.00;1.90;;;21.10;56.50;;;;;;5079111;27;43453;-57
2022/11/29 15:16:53;;;;;;;2.00;1.90;;;21.10;56.50;;;;;;5075948;28;43423;-56
2022/11/29 15:20:16;;;;;;;1.90;1.80;;;21.10;56.50;;;;;;5081146;27;44682;-56
2022/11/29 15:22:52;;;;;;;2.10;2.00;;;21.10;56.50;;;;;;5057929;28;43546;-56
2022/11/29 15:25:31;;;;;;;2.13;2.00;;;21.10;56.50;;;;;;5077537;28;43492;-56
2022/11/29 15:28:04;;;;;;;1.80;1.70;;;21.00;56.40;;;;;;5078136;28;43470;-56
2022/11/29 15:30:37;;;;;;;2.10;2.00;;;21.00;56.50;;;;;;5077715;28;44886;-56
2022/11/29 15:33:21;;;;;;;2.28;2.00;;;21.00;56.50;;;;;;5078169;28;43988;-56
2022/11/29 15:35:52;;;;;;;2.08;1.98;;;21.00;56.50;;;;;;5079032;28;43441;-56
2022/11/29 15:38:22;;;;;;;1.92;1.83;;;21.00;56.50;;;;;;5077939;27;43533;-56
2022/11/29 15:40:54;;;;;;;2.20;2.10;;;21.00;56.50;;;;;;5077654;27;44110;-56
2022/11/29 15:43:50;;;;;;;2.17;1.95;;;21.00;56.50;;;;;;5081372;27;43491;-57
2022/11/29 15:46:26;;;;;;;2.72;2.10;;;21.00;56.70;;;;;;5077965;28;43605;-56
2022/11/29 15:48:54;;;;;;;1.85;1.73;;;21.00;56.70;;;;;;5080565;27;43498;-56
2022/11/29 15:51:29;;;;;;;2.17;2.03;;;21.00;56.50;;;;;;5079414;27;43884;-56
2022/11/29 15:53:59;;;;;;;2.17;1.90;;;21.00;56.40;;;;;;5075961;28;44357;-56
2022/11/29 15:56:53;;;;;;;1.98;1.73;;;21.00;56.40;;;;;;5077581;28;43502;-56
2022/11/29 15:59:39;;;;;;;2.20;2.00;;;21.00;56.40;;;;;;5076681;28;43525;-57
2022/11/29 16:02:15;;;;;;;2.30;2.10;;;21.00;56.40;;;;;;5079918;28;43772;-56
2022/11/29 16:04:43;;;;;;;2.08;1.98;;;21.00;56.40;;;;;;5075989;27;43968;-56
2022/11/29 16:07:14;;;;;;;2.47;2.20;;;21.00;56.40;;;;;;5077047;27;43494;-56
2022/11/29 16:09:45;;;;;;;2.10;2.00;;;21.00;56.40;;;;;;5079338;28;43660;-57
2022/11/29 16:12:17;;;;;;;2.13;1.90;;;21.00;56.50;;;;;;5079908;27;43795;-56
2022/11/29 16:14:50;;;;;;;2.10;2.00;;;21.00;56.40;;;;;;5080842;27;43814;-56
2022/11/29 16:17:24;;;;;;;2.00;1.90;;;21.00;56.40;;;;;;5079669;28;43897;-56
2022/11/29 16:20:19;;;;;;;2.17;2.08;;;21.00;56.40;;;;;;5076901;28;43450;-56
2022/11/29 16:23:11;;;;;;;2.00;1.90;;;21.00;56.40;;;;;;5079308;28;44995;-56
2022/11/29 16:25:56;;;;;;;2.03;1.92;;;20.90;56.50;;;;;;5077305;28;43397;-56
2022/11/29 16:28:30;;;;;;;2.03;1.75;;;20.90;56.60;;;;;;5079056;28;43506;-56
2022/11/29 16:30:58;;;;;;;2.08;1.83;;;20.80;56.70;;;;;;5079904;27;43513;-56
2022/11/29 16:33:26;;;;;;;2.33;2.20;;;20.80;56.80;;;;;;5083640;27;45028;-56
2022/11/29 16:36:05;;;;;;;2.13;2.03;;;20.70;56.80;;;;;;5083383;27;43534;-56
2022/11/29 16:38:32;;;;;;;2.30;2.10;;;20.70;56.80;;;;;;5082405;28;43513;-56
2022/11/29 16:41:06;;;;;;;2.22;2.13;;;20.80;56.80;;;;;;5083865;27;43513;-56
2022/11/29 16:43:42;;;;;;;2.10;2.00;;;20.70;56.70;;;;;;5083727;28;44205;-56
2022/11/29 16:46:24;;;;;;;2.00;1.90;;;20.70;56.80;;;;;;5081017;27;43563;-56
2022/11/29 16:48:52;;;;;;;2.05;1.95;;;20.70;56.80;;;;;;5079493;28;43540;-56
2022/11/29 16:51:37;;;;;;;2.83;2.05;;;20.70;56.80;;;;;;5081251;28;43445;-56
2022/11/29 16:54:37;;;;;;;2.30;2.10;;;20.60;56.80;;;;;;5083664;27;44410;-56
2022/11/29 16:57:05;;;;;;;2.20;2.10;;;20.60;56.90;;;;;;5057188;28;43865;-56
2022/11/29 16:59:34;;;;;;;2.22;2.13;;;20.60;56.80;;;;;;5083083;27;43446;-56
2022/11/29 17:02:01;;;;;;;2.25;2.15;;;20.60;56.90;;;;;;5081230;27;43619;-56
2022/11/29 17:04:29;;;;;;;2.40;2.20;;;20.60;56.90;;;;;;5074350;27;45146;-57
2022/11/29 17:06:56;;;;;;;2.55;2.10;;;20.60;56.90;;;;;;5078582;27;43408;-57
2022/11/29 17:09:30;;;;;;;2.70;2.50;;;20.60;57.00;;;;;;5079668;28;43409;-57
2022/11/29 17:12:00;;;;;;;2.75;2.55;;;20.50;57.00;;;;;;5075975;27;43475;-58
2022/11/29 17:14:28;;;;;;;2.45;2.35;;;20.50;57.20;;;;;;5076142;28;43898;-58
2022/11/29 17:16:56;;;;;;;2.50;2.30;;;20.40;57.20;;;;;;5080050;27;44006;-59
2022/11/29 17:19:28;;;;;;;2.60;2.40;;;20.40;57.20;;;;;;5082016;27;43509;-59
2022/11/29 17:21:56;;;;;;;2.70;2.50;;;20.40;57.30;;;;;;5072396;27;43572;-59
2022/11/29 17:24:23;;;;;;;2.75;2.55;;;20.40;57.30;;;;;;5070378;28;43995;-58
2022/11/29 17:26:51;;;;;;;2.50;2.30;;;20.40;57.40;;;;;;5080758;27;43998;-59
2022/11/29 17:29:19;;;;;;;2.85;2.65;;;20.40;57.30;;;;;;5079637;27;44810;-57
2022/11/29 17:31:49;;;;;;;2.72;2.53;;;20.40;57.30;;;;;;5081721;27;43480;-57
2022/11/29 17:34:16;;;;;;;2.85;2.65;;;20.50;57.10;;;;;;5077686;28;44948;-58
2022/11/29 17:36:44;;;;;;;3.08;2.88;;;20.60;56.90;;;;;;5077417;28;43976;-59
2022/11/29 17:39:12;;;;;;;2.80;2.60;;;20.60;56.80;;;;;;5083159;27;43395;-58
2022/11/29 17:41:40;;;;;;;2.92;2.70;;;20.60;56.80;;;;;;5080844;27;43688;-59
2022/11/29 17:44:07;;;;;;;2.72;2.53;;;20.60;56.70;;;;;;5079621;27;44316;-59
2022/11/29 17:46:35;;;;;;;2.70;2.50;;;20.60;56.70;;;;;;5082256;27;43541;-57
2022/11/29 17:49:05;;;;;;;2.90;2.70;;;20.60;56.70;;;;;;5081199;27;43422;-57
2022/11/29 17:51:36;;;;;;;2.80;2.60;;;20.60;56.70;;;;;;5082249;27;43473;-57
2022/11/29 17:54:23;;;;;;;2.90;2.70;;;20.60;56.70;;;;;;5081242;27;44710;-57
2022/11/29 17:56:50;;;;;;;2.83;2.63;;;20.60;56.70;;;;;;5081546;27;43565;-58
2022/11/29 17:59:18;;;;;;;2.80;2.50;;;20.50;56.70;;;;;;5079139;28;43491;-59
2022/11/29 18:01:48;;;;;;;3.03;2.72;;;20.50;56.70;;;;;;5079154;28;43573;-59
2022/11/29 18:04:15;;;;;;;3.10;2.90;;;20.50;56.70;;;;;;5079379;28;43742;-58
2022/11/29 18:06:44;;;;;;;2.90;2.70;;;20.50;56.70;;;;;;5078243;28;43524;-57
2022/11/29 18:09:12;;;;;;;3.33;3.13;;;20.50;56.80;;;;;;5081795;27;43437;-56
2022/11/29 18:11:43;;;;;;;2.90;2.70;;;20.50;56.70;;;;;;5081362;27;43478;-58
2022/11/29 18:14:24;;;;;;;2.83;2.63;;;20.50;56.70;;;;;;5080747;28;44406;-59
2022/11/29 18:16:51;;;;;;;3.03;2.83;;;20.50;56.80;;;;;;5081432;28;43996;-59
2022/11/29 18:19:20;;;;;;;3.28;2.95;;;20.50;56.80;;;;;;5081006;27;43975;-59
2022/11/29 18:21:50;;;;;;;3.95;3.08;;;20.50;56.80;;;;;;5080385;28;43451;-59
2022/11/29 18:24:18;;;;;;;3.40;3.10;;;20.50;56.70;;;;;;5081743;27;45133;-59
2022/11/29 18:26:46;;;;;;;3.47;3.28;;;20.50;57.40;;;;;;5079231;27;43512;-59
2022/11/29 18:29:13;;;;;;;3.28;3.08;;;20.50;56.70;;;;;;5078702;27;43491;-57
2022/11/29 18:31:43;;;;;;;3.00;2.80;;;20.50;56.70;;;;;;5078011;28;43452;-57
2022/11/29 18:34:12;;;;;;;3.27;2.97;;;20.50;56.70;;;;;;5077501;27;44013;-58
2022/11/29 18:36:46;;;;;;;3.33;3.10;;;20.50;56.70;;;;;;5081320;27;43481;-59
2022/11/29 18:39:16;;;;;;;3.25;3.05;;;20.50;56.70;;;;;;5078455;28;43507;-59
2022/11/29 18:41:46;;;;;;;3.53;3.22;;;20.50;56.70;;;;;;5081088;27;43536;-59
2022/11/29 18:44:16;;;;;;;2.92;2.72;;;20.40;56.90;;;;;;5080493;27;43912;-57
2022/11/29 18:46:44;;;;;;;3.55;3.28;;;20.30;56.90;;;;;;5077591;28;43485;-56
2022/11/29 18:49:13;;;;;;;3.60;3.30;;;20.30;56.90;;;;;;5076011;27;43506;-56
2022/11/29 18:51:43;;;;;;;3.50;3.20;;;20.30;57.00;;;;;;5077660;28;43528;-56
2022/11/29 18:54:13;;;;;;;3.45;3.17;;;20.30;57.10;;;;;;5079965;27;43821;-56
2022/11/29 18:56:42;;;;;;;3.20;2.90;;;20.20;57.00;;;;;;5082361;27;43449;-57
2022/11/29 18:59:15;;;;;;;3.55;3.25;;;20.30;57.10;;;;;;5078170;28;43453;-58
2022/11/29 19:01:46;;;;;;;3.55;3.25;;;20.20;57.70;;;;;;5078933;28;43469;-57
2022/11/29 19:04:17;;;;;;;3.30;3.10;;;20.20;57.00;;;;;;5077920;27;45088;-56
2022/11/29 19:06:46;;;;;;;3.45;3.15;;;20.20;57.00;;;;;;5109345;27;43459;-59
2022/11/29 19:09:20;;;;;;;3.60;3.30;;;20.20;57.10;;;;;;5080106;27;43491;-59
2022/11/29 19:11:49;;;;;;;3.83;3.53;;;20.20;57.10;;;;;;5078691;28;43576;-59
2022/11/29 19:14:18;;;;;;;3.95;3.65;;;20.20;57.20;;;;;;5077920;27;43910;-59
2022/11/29 19:16:48;;;;;;;3.97;3.67;;;20.10;57.20;;;;;;5077415;27;43451;-59
2022/11/29 19:19:17;;;;;;;4.03;3.72;;;20.10;57.20;;;;;;5079271;28;43455;-59
2022/11/29 19:21:46;;;;;;;4.95;3.83;;;20.10;57.30;;;;;;5081623;28;43525;-59
2022/11/29 19:24:16;;;;;;;4.43;4.05;;;20.10;57.30;;;;;;5080045;28;45679;-59
2022/11/29 19:26:48;;;;;;;4.10;3.80;;;20.10;57.30;;;;;;5078721;27;43463;-59
2022/11/29 19:29:16;;;;;;;3.92;3.63;;;20.10;57.40;;;;;;5078542;28;43530;-59
2022/11/29 19:31:45;;;;;;;4.25;3.85;;;20.00;57.40;;;;;;5078738;28;43534;-59
2022/11/29 19:34:12;;;;;;;4.35;3.95;;;20.00;57.40;;;;;;5073234;28;44046;-59
2022/11/29 19:36:41;;;;;;;4.68;4.28;;;20.00;57.50;;;;;;5075609;28;44001;-57
2022/11/29 19:39:16;;;;;;;4.20;3.85;;;20.00;57.50;;;;;;5080411;27;43481;-58
2022/11/29 19:41:46;;;;;;;4.18;3.80;;;20.10;57.40;;;;;;5078975;27;43494;-59
2022/11/29 19:44:14;;;;;;;4.40;4.00;;;20.10;57.40;;;;;;5078135;27;44099;-59
2022/11/29 19:46:44;;;;;;;4.35;3.97;;;20.00;57.40;;;;;;5079040;27;43977;-59
2022/11/29 19:49:12;;;;;;;4.43;3.90;;;20.00;57.40;;;;;;5078607;27;43473;-59
2022/11/29 19:51:39;;;;;;;4.43;4.05;;;20.10;57.40;;;;;;5078492;27;43696;-59
2022/11/29 19:54:09;;;;;;;4.60;4.20;;;20.00;57.40;;;;;;5075919;27;43795;-59
2022/11/29 19:56:37;;;;;;;4.57;4.18;;;20.10;57.40;;;;;;5076794;28;43551;-59
2022/11/29 19:59:06;;;;;;;4.50;4.10;;;20.00;57.40;;;;;;5071001;28;43489;-57
2022/11/29 20:01:35;;;;;;;4.55;4.15;;;20.10;57.50;;;;;;5074641;28;43470;-57
2022/11/29 20:04:09;;;;;;;4.45;4.05;;;20.00;57.60;;;;;;5075102;28;43893;-56
2022/11/29 20:06:40;;;;;;;4.50;4.10;;;20.10;57.50;;;;;;5080616;27;43748;-57
2022/11/29 20:09:08;;;;;;;4.83;4.20;;;20.10;57.40;;;;;;5079578;27;43443;-57
2022/11/29 20:11:35;;;;;;;4.80;4.40;;;20.10;57.40;;;;;;5078354;27;43418;-57
2022/11/29 20:14:05;;;;;;;5.03;4.50;;;20.10;57.30;;;;;;5076841;28;43781;-57
2022/11/29 20:16:34;;;;;;;4.93;4.53;;;20.10;57.30;;;;;;5078929;27;43534;-57
2022/11/29 20:19:01;;;;;;;4.60;4.20;;;20.10;57.30;;;;;;5078833;27;43470;-57
2022/11/29 20:21:31;;;;;;;5.35;4.22;;;20.20;57.30;;;;;;5074493;28;43688;-57
2022/11/29 20:24:04;;;;;;;4.95;4.47;;;20.20;57.20;;;;;;5076613;28;44732;-57
2022/11/29 20:26:35;;;;;;;4.82;4.43;;;20.10;57.20;;;;;;5079075;28;43690;-57
2022/11/29 20:29:06;;;;;;;4.70;4.30;;;20.20;57.30;;;;;;5077319;28;43580;-58
2022/11/29 20:31:35;;;;;;;5.07;4.60;;;20.10;57.20;;;;;;5080457;27;43494;-59
2022/11/29 20:34:05;;;;;;;4.95;4.45;;;20.20;57.30;;;;;;5079103;27;45361;-57
2022/11/29 20:36:42;;;;;;;5.05;4.65;;;20.10;57.20;;;;;;5080110;27;43786;-59
2022/11/29 20:39:30;;;;;;;4.78;4.32;;;20.10;57.30;;;;;;5076309;28;43520;-59
2022/11/29 20:42:30;;;;;;;4.78;4.30;;;20.10;57.40;;;;;;5077662;28;43499;-57
2022/11/29 20:45:03;;;;;;;4.95;4.45;;;20.10;57.20;;;;;;5077256;28;43900;-58
2022/11/29 20:47:46;;;;;;;5.00;4.50;;;20.10;57.20;;;;;;5072913;27;44089;-59
2022/11/29 20:50:18;;;;;;;5.43;4.78;;;20.10;57.30;;;;;;5080263;28;43508;-59
2022/11/29 20:53:24;;;;;;;5.32;4.82;;;20.10;57.20;;;;;;5075426;27;43516;-57
2022/11/29 20:55:52;;;;;;;4.97;4.57;;;20.20;57.20;;;;;;5078510;28;43811;-57
2022/11/29 20:58:19;;;;;;;5.25;4.85;;;20.10;57.20;;;;;;5079535;27;43846;-57
2022/11/29 21:00:47;;;;;;;5.10;4.60;;;20.20;57.30;;;;;;5076106;27;43489;-57
2022/11/29 21:03:15;;;;;;;5.25;4.78;;;20.20;57.30;;;;;;5080066;27;43534;-57
2022/11/29 21:05:43;;;;;;;4.93;4.53;;;20.10;57.20;;;;;;5073570;28;44945;-57
2022/11/29 21:08:12;;;;;;;5.00;4.60;;;20.10;57.20;;;;;;5076977;27;43815;-59
2022/11/29 21:10:40;;;;;;;5.50;5.00;;;20.10;57.20;;;;;;5075960;27;43476;-57
2022/11/29 21:13:09;;;;;;;5.43;5.00;;;20.20;57.30;;;;;;5077598;27;43601;-57
2022/11/29 21:15:37;;;;;;;5.10;4.70;;;20.10;57.20;;;;;;5079984;27;44898;-57
2022/11/29 21:18:05;;;;;;;5.30;4.80;;;20.20;57.30;;;;;;5079659;27;43976;-57
2022/11/29 21:20:33;;;;;;;5.13;4.68;;;20.10;57.20;;;;;;5080515;27;43535;-57
2022/11/29 21:23:20;;;;;;;4.97;4.57;;;20.20;57.20;;;;;;5080976;28;44173;-57
2022/11/29 21:26:01;;;;;;;5.65;5.15;;;20.20;57.20;;;;;;5079493;28;44661;-57
2022/11/29 21:28:33;;;;;;;5.32;4.82;;;20.10;57.20;;;;;;5080922;28;43836;-58
2022/11/29 21:31:01;;;;;;;5.13;4.72;;;20.20;57.30;;;;;;5077119;27;43435;-58
2022/11/29 21:33:29;;;;;;;5.80;5.30;;;20.20;57.30;;;;;;5071001;28;43482;-58
2022/11/29 21:35:57;;;;;;;5.25;4.75;;;20.10;57.30;;;;;;5076471;27;43811;-58